Time;durP1;ratioP1;P1;durP2;ratioP2;P2;SDS_P1;SDS_P2;PMS_P1;PMS_P2;Temp;Humidity;BMP_temperature;BMP_pressure;BME280_temperature;BME280_humidity;BME280_pressure;Samples;Min_cycle;Max_cycle;Signal;HPM_P1;HPM_P2
2024/01/24 00:00:46;;;;;;;;;;;;;;;-14.50;46.12;97956.66;6270393;28;19928;-66
2024/01/24 00:03:47;;;;;;;;;;;;;;;-14.47;46.07;97953.41;6270555;28;19920;-66
2024/01/24 00:06:50;;;;;;;;;;;;;;;-14.50;45.97;97954.13;6270916;28;20639;-67
2024/01/24 00:09:55;;;;;;;;;;;;;;;-14.47;45.92;97934.06;6270786;28;20279;-67
2024/01/24 00:12:56;;;;;;;;;;;;;;;-14.43;46.05;97931.66;6270059;28;19927;-67
2024/01/24 00:15:57;;;;;;;;;;;;;;;-14.39;46.13;97931.03;6270092;28;19920;-68
2024/01/24 00:19:00;;;;;;;;;;;;;;;-14.32;46.11;97928.91;6252765;28;19921;-67
2024/01/24 00:22:06;;;;;;;;;;;;;;;-14.18;45.69;97927.03;6245427;28;20378;-67
2024/01/24 00:25:07;;;;;;;;;;;;;;;-14.05;45.66;97918.38;6245216;28;20309;-66
2024/01/24 00:28:12;;;;;;;;;;;;;;;-13.90;45.43;97920.75;6245261;28;20232;-66
2024/01/24 00:31:13;;;;;;;;;;;;;;;-13.76;45.33;97912.13;6245525;28;19920;-66
2024/01/24 00:34:17;;;;;;;;;;;;;;;-13.62;45.54;97918.69;6245734;28;19964;-66
2024/01/24 00:37:18;;;;;;;;;;;;;;;-13.50;45.26;97920.03;6245048;28;20437;-66
2024/01/24 00:40:19;;;;;;;;;;;;;;;-13.42;45.53;97918.72;6244854;28;19921;-67
2024/01/24 00:43:22;;;;;;;;;;;;;;;-13.35;44.96;97915.69;6245453;28;19920;-66
2024/01/24 00:46:24;;;;;;;;;;;;;;;-13.29;45.28;97921.03;6244716;28;19929;-66
2024/01/24 00:49:29;;;;;;;;;;;;;;;-13.24;45.48;97919.53;6245249;28;19920;-66
2024/01/24 00:52:31;;;;;;;;;;;;;;;-13.21;45.38;97914.59;6244628;28;19921;-66
2024/01/24 00:55:34;;;;;;;;;;;;;;;-13.20;45.38;97915.47;6244455;28;20027;-67
2024/01/24 00:58:37;;;;;;;;;;;;;;;-13.23;45.42;97911.13;6227955;28;19940;-67
2024/01/24 01:01:38;;;;;;;;;;;;;;;-13.25;45.08;97912.72;6244421;28;19928;-67
2024/01/24 01:04:39;;;;;;;;;;;;;;;-13.27;45.29;97899.19;6244280;28;20310;-66
2024/01/24 01:07:40;;;;;;;;;;;;;;;-13.30;45.68;97893.97;6244289;28;19921;-67
2024/01/24 01:10:41;;;;;;;;;;;;;;;-13.31;45.69;97887.16;6244044;28;19986;-66
2024/01/24 01:13:42;;;;;;;;;;;;;;;-13.32;45.51;97877.84;6244050;28;19928;-67
2024/01/24 01:16:43;;;;;;;;;;;;;;;-13.34;45.42;97881.97;6244285;28;19921;-67
2024/01/24 01:19:49;;;;;;;;;;;;;;;-13.40;45.75;97882.56;6244682;28;19925;-68
2024/01/24 01:22:52;;;;;;;;;;;;;;;-13.42;45.76;97878.22;6244659;28;19921;-66
2024/01/24 01:25:53;;;;;;;;;;;;;;;-13.45;45.76;97875.56;6243711;28;19921;-66
2024/01/24 01:28:54;;;;;;;;;;;;;;;-13.55;45.12;97871.75;6243973;28;19921;-67
2024/01/24 01:31:55;;;;;;;;;;;;;;;-13.65;45.55;97865.41;6244079;28;20038;-66
2024/01/24 01:34:59;;;;;;;;;;;;;;;-13.70;45.74;97876.13;6244172;28;19921;-67
2024/01/24 01:38:02;;;;;;;;;;;;;;;-13.72;45.65;97880.25;6243578;28;20298;-66
2024/01/24 01:41:04;;;;;;;;;;;;;;;-13.71;46.10;97877.78;6244026;28;20024;-67
2024/01/24 01:44:05;;;;;;;;;;;;;;;-13.70;45.43;97879.53;6243606;28;19928;-67
2024/01/24 01:47:07;;;;;;;;;;;;;;;-13.70;45.93;97877.00;6244186;28;20693;-67
2024/01/24 01:50:14;;;;;;;;;;;;;;;-13.66;45.63;97868.75;6244466;28;19920;-66
2024/01/24 01:53:15;;;;;;;;;;;;;;;-13.60;45.98;97863.97;6243999;28;20031;-68
2024/01/24 01:56:20;;;;;;;;;;;;;;;-13.53;45.67;97869.28;6243933;28;19920;-67
2024/01/24 01:59:21;;;;;;;;;;;;;;;-13.49;45.68;97876.22;6244076;28;19921;-67
2024/01/24 02:02:25;;;;;;;;;;;;;;;-13.45;45.68;97878.09;6244144;28;19921;-66
2024/01/24 02:05:28;;;;;;;;;;;;;;;-13.44;44.98;97864.66;6243311;28;19920;-66
2024/01/24 02:08:32;;;;;;;;;;;;;;;-13.45;45.18;97873.03;6243440;28;19928;-67
2024/01/24 02:11:35;;;;;;;;;;;;;;;-13.45;45.40;97867.97;6243842;28;19921;-67
2024/01/24 02:14:36;;;;;;;;;;;;;;;-13.45;46.05;97862.91;6244051;28;19921;-67
2024/01/24 02:17:40;;;;;;;;;;;;;;;-13.47;45.79;97859.44;6244005;28;19929;-65
2024/01/24 02:20:44;;;;;;;;;;;;;;;-13.47;46.63;97854.38;6243942;28;20386;-67
2024/01/24 02:23:47;;;;;;;;;;;;;;;-13.46;46.19;97851.06;6243119;28;19920;-67
2024/01/24 02:26:53;;;;;;;;;;;;;;;-13.48;46.00;97848.44;6226495;28;19927;-67
2024/01/24 02:29:56;;;;;;;;;;;;;;;-13.52;46.26;97849.13;6243456;28;19936;-66
2024/01/24 02:32:59;;;;;;;;;;;;;;;-13.59;45.22;97849.63;6243045;28;20039;-67
2024/01/24 02:36:00;;;;;;;;;;;;;;;-13.70;45.78;97846.66;6242798;28;19921;-67
2024/01/24 02:39:02;;;;;;;;;;;;;;;-13.74;46.14;97838.84;6242943;28;19924;-66
2024/01/24 02:42:03;;;;;;;;;;;;;;;-13.79;46.24;97841.16;6243493;28;20087;-67
2024/01/24 02:45:06;;;;;;;;;;;;;;;-13.84;45.97;97833.38;6246324;28;20310;-67
2024/01/24 02:48:10;;;;;;;;;;;;;;;-13.86;46.48;97837.47;6247659;28;20006;-68
2024/01/24 02:51:11;;;;;;;;;;;;;;;-13.88;46.15;97835.69;6247126;28;19925;-67
2024/01/24 02:54:11;;;;;;;;;;;;;;;-13.91;46.19;97830.47;6247371;28;20302;-68
2024/01/24 02:57:12;;;;;;;;;;;;;;;-14.00;46.13;97825.88;6247613;28;19920;-67
2024/01/24 03:00:14;;;;;;;;;;;;;;;-14.12;47.06;97833.75;6229421;28;19921;-67
2024/01/24 03:03:15;;;;;;;;;;;;;;;-14.24;46.96;97825.59;6247092;28;19921;-67
2024/01/24 03:06:16;;;;;;;;;;;;;;;-14.35;46.97;97827.66;6229474;28;19943;-67
2024/01/24 03:09:19;;;;;;;;;;;;;;;-14.48;47.30;97830.38;6246600;28;20406;-67
2024/01/24 03:12:20;;;;;;;;;;;;;;;-14.62;47.53;97836.47;6246195;28;20006;-67
2024/01/24 03:15:25;;;;;;;;;;;;;;;-14.72;47.77;97840.19;6247272;28;20303;-67
2024/01/24 03:18:28;;;;;;;;;;;;;;;-14.84;47.81;97840.47;6260751;28;20298;-66
2024/01/24 03:21:32;;;;;;;;;;;;;;;-14.96;47.70;97840.72;6272109;28;19921;-66
2024/01/24 03:24:34;;;;;;;;;;;;;;;-15.10;47.78;97851.78;6271091;28;19920;-67
2024/01/24 03:27:37;;;;;;;;;;;;;;;-15.24;47.66;97845.19;6271155;28;20049;-67
2024/01/24 03:30:41;;;;;;;;;;;;;;;-15.36;48.24;97847.97;6271610;28;19917;-67
2024/01/24 03:33:42;;;;;;;;;;;;;;;-15.40;48.09;97846.06;6270843;28;20394;-67
2024/01/24 03:36:43;;;;;;;;;;;;;;;-15.44;48.10;97840.00;6270660;28;19920;-67
2024/01/24 03:39:46;;;;;;;;;;;;;;;-15.52;48.02;97835.34;6271359;28;19924;-67
2024/01/24 03:42:50;;;;;;;;;;;;;;;-15.60;48.04;97834.94;6271358;28;19956;-67
2024/01/24 03:45:53;;;;;;;;;;;;;;;-15.70;48.18;97830.25;6271217;28;19939;-67
2024/01/24 03:48:54;;;;;;;;;;;;;;;-15.74;48.50;97846.00;6270530;28;19999;-66
2024/01/24 03:52:00;;;;;;;;;;;;;;;-15.75;48.73;97846.78;6271199;28;19959;-67
2024/01/24 03:55:03;;;;;;;;;;;;;;;-15.79;48.26;97834.78;6269192;28;19927;-67
2024/01/24 03:58:04;;;;;;;;;;;;;;;-15.82;48.66;97844.72;6270203;28;20306;-67
2024/01/24 04:01:10;;;;;;;;;;;;;;;-15.87;48.36;97847.88;6271372;28;20019;-67
2024/01/24 04:04:13;;;;;;;;;;;;;;;-15.93;48.54;97842.50;6270422;28;19924;-67
2024/01/24 04:07:14;;;;;;;;;;;;;;;-15.97;48.40;97840.59;6270711;28;19927;-67
2024/01/24 04:10:16;;;;;;;;;;;;;;;-15.99;48.48;97827.06;6270468;28;20374;-66
2024/01/24 04:13:20;;;;;;;;;;;;;;;-15.99;48.94;97837.16;6270596;28;19925;-68
2024/01/24 04:16:23;;;;;;;;;;;;;;;-15.98;48.80;97833.84;6270877;28;19986;-67
2024/01/24 04:19:26;;;;;;;;;;;;;;;-15.96;48.58;97837.31;6249303;28;19946;-68
2024/01/24 04:22:29;;;;;;;;;;;;;;;-15.94;48.35;97830.69;6244325;28;19921;-67
2024/01/24 04:25:32;;;;;;;;;;;;;;;-15.94;47.99;97834.84;6245809;28;20350;-66
2024/01/24 04:28:36;;;;;;;;;;;;;;;-15.93;47.70;97840.00;6244957;28;19925;-67
2024/01/24 04:31:42;;;;;;;;;;;;;;;-15.87;47.94;97840.31;6245678;28;20302;-67
2024/01/24 04:34:43;;;;;;;;;;;;;;;-15.77;47.57;97829.03;6245073;28;19921;-67
2024/01/24 04:37:49;;;;;;;;;;;;;;;-15.69;47.37;97826.94;6245333;28;19928;-67
2024/01/24 04:40:53;;;;;;;;;;;;;;;-15.60;47.28;97832.41;6245068;28;20004;-66
2024/01/24 04:43:53;;;;;;;;;;;;;;;-15.54;47.19;97822.63;6244712;28;19921;-66
2024/01/24 04:46:55;;;;;;;;;;;;;;;-15.49;47.04;97821.22;6227329;28;20287;-67
2024/01/24 04:49:56;;;;;;;;;;;;;;;-15.44;46.68;97824.84;6245003;28;19928;-66
2024/01/24 04:52:57;;;;;;;;;;;;;;;-15.40;46.69;97816.66;6244406;28;19924;-67
2024/01/24 04:56:00;;;;;;;;;;;;;;;-15.35;46.59;97813.50;6244333;28;19925;-68
2024/01/24 04:59:06;;;;;;;;;;;;;;;-15.24;46.34;97807.31;6244980;28;20433;-67
2024/01/24 05:02:09;;;;;;;;;;;;;;;-15.12;46.24;97807.94;6246359;28;19921;-65
2024/01/24 05:05:13;;;;;;;;;;;;;;;-14.93;45.85;97815.63;6244453;28;19937;-66
2024/01/24 05:08:14;;;;;;;;;;;;;;;-14.78;45.54;97819.69;6244038;28;20330;-67
2024/01/24 05:11:15;;;;;;;;;;;;;;;-14.69;46.13;97810.00;6244287;28;19924;-67
2024/01/24 05:14:16;;;;;;;;;;;;;;;-14.62;45.66;97801.94;6244702;28;19964;-67
2024/01/24 05:17:17;;;;;;;;;;;;;;;-14.59;45.67;97802.09;6244652;28;19917;-66
2024/01/24 05:20:18;;;;;;;;;;;;;;;-14.63;45.79;97797.69;6243905;28;19928;-65
2024/01/24 05:23:23;;;;;;;;;;;;;;;-14.63;45.83;97800.22;6244572;28;20478;-69
2024/01/24 05:26:29;;;;;;;;;;;;;;;-14.57;46.19;97790.41;6244350;28;19936;-67
2024/01/24 05:29:33;;;;;;;;;;;;;;;-14.48;46.03;97785.75;6244402;28;20319;-67
2024/01/24 05:32:36;;;;;;;;;;;;;;;-14.37;46.23;97787.91;6243697;28;19943;-66
2024/01/24 05:35:38;;;;;;;;;;;;;;;-14.21;45.70;97782.75;6243198;28;20314;-66
2024/01/24 05:38:39;;;;;;;;;;;;;;;-14.11;45.75;97784.06;6244102;28;20310;-66
2024/01/24 05:41:44;;;;;;;;;;;;;;;-14.05;45.71;97777.59;6244418;28;19920;-68
2024/01/24 05:44:50;;;;;;;;;;;;;;;-13.93;45.63;97776.41;6243996;28;20382;-67
2024/01/24 05:47:54;;;;;;;;;;;;;;;-13.84;45.78;97779.34;6244250;28;19921;-67
2024/01/24 05:50:57;;;;;;;;;;;;;;;-13.70;45.59;97775.78;6243367;28;20011;-67
2024/01/24 05:54:01;;;;;;;;;;;;;;;-13.58;45.39;97766.19;6244312;28;19929;-68
2024/01/24 05:57:02;;;;;;;;;;;;;;;-13.51;45.08;97768.97;6244128;28;19917;-66
2024/01/24 06:00:04;;;;;;;;;;;;;;;-13.43;44.93;97762.59;6243350;28;19928;-68
2024/01/24 06:03:05;;;;;;;;;;;;;;;-13.35;45.23;97763.78;6242505;28;20012;-67
2024/01/24 06:06:06;;;;;;;;;;;;;;;-13.25;45.26;97770.09;6243043;28;19932;-66
2024/01/24 06:09:09;;;;;;;;;;;;;;;-13.12;45.44;97763.03;6243723;28;19921;-66
2024/01/24 06:12:10;;;;;;;;;;;;;;;-12.96;45.44;97756.06;6243015;28;19924;-67
2024/01/24 06:15:13;;;;;;;;;;;;;;;-12.83;45.00;97765.88;6243119;28;19948;-68
2024/01/24 06:18:14;;;;;;;;;;;;;;;-12.66;45.21;97756.41;6243678;28;19916;-67
2024/01/24 06:21:15;;;;;;;;;;;;;;;-12.49;44.66;97752.88;6247957;28;19928;-68
2024/01/24 06:24:18;;;;;;;;;;;;;;;-12.30;44.88;97754.47;6248511;28;19921;-67
2024/01/24 06:27:21;;;;;;;;;;;;;;;-12.16;44.33;97754.13;6248374;28;19921;-67
2024/01/24 06:30:22;;;;;;;;;;;;;;;-11.99;44.00;97742.94;6247902;28;19964;-67
2024/01/24 06:33:24;;;;;;;;;;;;;;;-11.85;44.19;97744.25;6248144;28;19921;-67
2024/01/24 06:36:28;;;;;;;;;;;;;;;-11.68;44.17;97731.31;6248256;28;20043;-67
2024/01/24 06:39:30;;;;;;;;;;;;;;;-11.53;44.18;97731.84;6248050;28;19921;-68
2024/01/24 06:42:31;;;;;;;;;;;;;;;-11.41;43.69;97734.78;6230012;28;19921;-67
2024/01/24 06:45:34;;;;;;;;;;;;;;;-11.30;43.42;97730.94;6247339;28;19943;-68
2024/01/24 06:48:41;;;;;;;;;;;;;;;-11.14;43.34;97731.50;6248232;28;20390;-67
2024/01/24 06:51:45;;;;;;;;;;;;;;;-11.00;43.18;97727.72;6248025;28;19916;-67
2024/01/24 06:54:50;;;;;;;;;;;;;;;-10.80;42.93;97712.25;6247912;28;20427;-66
2024/01/24 06:57:51;;;;;;;;;;;;;;;-9.36;42.98;97708.78;6247842;28;20413;-66
2024/01/24 07:00:52;;;;;;;;;;;;;;;-3.75;37.20;97704.72;6247206;28;19920;-67
2024/01/24 07:03:53;;;;;;;;;;;;;;;1.99;31.12;97712.38;6247469;28;20010;-66
2024/01/24 07:06:57;;;;;;;;;;;;;;;6.62;27.53;97712.34;6247697;28;20028;-67
2024/01/24 07:09:58;;;;;;;;;;;;;;;10.07;24.17;97712.63;6246612;28;20340;-68
2024/01/24 07:13:02;;;;;;;;;;;;;;;12.79;22.97;97701.25;6246555;28;20358;-68
2024/01/24 07:16:04;;;;;;;;;;;;;;;14.78;20.57;97698.19;6229123;28;20395;-68
2024/01/24 07:19:06;;;;;;;;;;;;;;;16.47;18.18;97697.50;6247169;28;19921;-68
2024/01/24 07:22:06;;;;;;;;;;;;;;;17.80;19.32;97694.22;6229585;28;19932;-68
2024/01/24 07:25:19;;;;;;;;;;;;;;;18.91;20.19;97690.38;6247201;28;20310;-68
2024/01/24 07:28:28;;;;;;;;;;;;;;;19.93;15.82;97677.88;6247391;28;19920;-67
2024/01/24 07:31:31;;;;;;;;;;;;;;;20.42;18.29;97671.56;6246263;28;19920;-67
2024/01/24 07:34:32;;;;;;;;;;;;;;;21.13;15.90;97672.16;6247124;28;20070;-68
2024/01/24 07:37:33;;;;;;;;;;;;;;;21.62;18.56;97673.66;6246167;28;19944;-68
2024/01/24 07:40:39;;;;;;;;;;;;;;;22.08;17.14;97673.63;6246923;28;20567;-68
2024/01/24 07:43:41;;;;;;;;;;;;;;;22.37;17.08;97662.75;6246554;28;19928;-68
2024/01/24 07:46:43;;;;;;;;;;;;;;;23.05;15.63;97657.56;6246083;28;19955;-68
2024/01/24 07:49:46;;;;;;;;;;;;;;;23.65;12.56;97659.34;6246831;28;19932;-67
2024/01/24 07:52:50;;;;;;;;;;;;;;;24.04;13.59;97653.44;6246974;28;19967;-68
2024/01/24 07:55:51;;;;;;;;;;;;;;;24.12;15.53;97647.25;6247469;28;20428;-68
2024/01/24 07:58:55;;;;;;;;;;;;;;;24.20;13.04;97637.34;6246718;28;19921;-67
2024/01/24 08:01:59;;;;;;;;;;;;;;;24.30;13.22;97630.94;6246141;28;20390;-69
2024/01/24 08:05:02;;;;;;;;;;;;;;;24.52;17.86;97632.16;6246433;28;19921;-68
2024/01/24 08:08:04;;;;;;;;;;;;;;;25.13;17.25;97627.16;6245386;28;19924;-67
2024/01/24 08:11:07;;;;;;;;;;;;;;;25.32;14.51;97621.41;6245018;28;19921;-68
2024/01/24 08:14:13;;;;;;;;;;;;;;;25.50;16.30;97623.84;6246198;28;19917;-68
2024/01/24 08:17:15;;;;;;;;;;;;;;;25.78;14.58;97616.13;6248844;28;19920;-68
2024/01/24 08:20:19;;;;;;;;;;;;;;;25.93;10.12;97608.16;6270124;28;20007;-67
2024/01/24 08:23:23;;;;;;;;;;;;;;;26.15;15.30;97606.50;6252244;28;19933;-67
2024/01/24 08:26:24;;;;;;;;;;;;;;;26.20;13.82;97604.09;6252615;28;19920;-67
2024/01/24 08:29:33;;;;;;;;;;;;;;;26.33;14.77;97598.09;6270524;28;19928;-68
2024/01/24 08:32:40;;;;;;;;;;;;;;;26.47;13.93;97589.22;6270436;28;20039;-66
2024/01/24 08:35:43;;;;;;;;;;;;;;;26.84;15.07;97587.53;6270179;28;20376;-66
2024/01/24 08:38:44;;;;;;;;;;;;;;;27.03;15.43;97569.91;6269165;28;19928;-67
2024/01/24 08:41:50;;;;;;;;;;;;;;;27.13;13.82;97567.78;6269425;28;19967;-67
2024/01/24 08:44:55;;;;;;;;;;;;;;;27.14;14.83;97561.34;6269795;28;19928;-67
2024/01/24 08:47:55;;;;;;;;;;;;;;;27.39;13.08;97561.06;6269484;28;20478;-67
2024/01/24 08:50:59;;;;;;;;;;;;;;;27.47;10.05;97552.84;6269065;28;19924;-67
2024/01/24 08:54:06;;;;;;;;;;;;;;;27.37;13.13;97546.91;6250836;28;19928;-67
2024/01/24 08:57:10;;;;;;;;;;;;;;;27.31;14.43;97538.53;6268684;28;20092;-67
2024/01/24 09:00:11;;;;;;;;;;;;;;;27.22;14.38;97534.25;6269041;28;19928;-67
2024/01/24 09:03:12;;;;;;;;;;;;;;;27.18;9.69;97526.75;6269828;28;19928;-68
2024/01/24 09:06:16;;;;;;;;;;;;;;;27.16;13.11;97535.03;6270063;28;19921;-67
2024/01/24 09:09:20;;;;;;;;;;;;;;;27.25;11.83;97525.78;6269733;28;19939;-67
2024/01/24 09:12:24;;;;;;;;;;;;;;;27.16;12.73;97518.81;6269324;28;19921;-67
2024/01/24 09:15:27;;;;;;;;;;;;;;;26.97;11.56;97522.06;6269151;28;19925;-67
2024/01/24 09:18:28;;;;;;;;;;;;;;;26.76;13.40;97522.81;6254878;28;19982;-68
2024/01/24 09:21:31;;;;;;;;;;;;;;;25.27;10.48;97511.50;6244136;28;19932;-66
2024/01/24 09:24:32;;;;;;;;;;;;;;;24.66;12.64;97505.00;6244044;28;19921;-68
2024/01/24 09:27:37;;;;;;;;;;;;;;;24.69;11.94;97511.91;6244374;28;19917;-68
2024/01/24 09:30:39;;;;;;;;;;;;;;;23.60;11.54;97505.84;6244287;28;19925;-66
2024/01/24 09:33:40;;;;;;;;;;;;;;;22.10;13.54;97510.84;6243534;28;19929;-69
2024/01/24 09:36:41;;;;;;;;;;;;;;;22.05;15.12;97505.13;6243807;28;20332;-67
2024/01/24 09:39:42;;;;;;;;;;;;;;;22.38;10.48;97487.44;6244410;28;19928;-67
2024/01/24 09:42:44;;;;;;;;;;;;;;;21.99;12.42;97487.81;6244338;28;20511;-67
2024/01/24 09:45:49;;;;;;;;;;;;;;;21.63;11.79;97485.19;6244169;28;19928;-67
2024/01/24 09:48:50;;;;;;;;;;;;;;;21.19;11.80;97477.03;6243929;28;20378;-67
2024/01/24 09:51:54;;;;;;;;;;;;;;;20.47;12.60;97473.31;6244474;28;20020;-68
2024/01/24 09:55:00;;;;;;;;;;;;;;;20.03;11.38;97464.16;6247589;28;19925;-67
2024/01/24 09:58:03;;;;;;;;;;;;;;;20.65;12.88;97459.19;6248601;28;19999;-67
2024/01/24 10:01:08;;;;;;;;;;;;;;;21.41;12.37;97462.41;6248736;28;20258;-68
2024/01/24 10:04:12;;;;;;;;;;;;;;;21.90;11.96;97460.13;6248941;28;19921;-68
2024/01/24 10:07:14;;;;;;;;;;;;;;;22.11;13.00;97459.78;6248014;28;19921;-67
2024/01/24 10:10:20;;;;;;;;;;;;;;;22.16;13.29;97459.28;6231792;28;20416;-69
2024/01/24 10:13:26;;;;;;;;;;;;;;;22.13;12.22;97456.94;6249161;28;20733;-69
2024/01/24 10:16:30;;;;;;;;;;;;;;;22.01;14.21;97452.84;6249111;28;19921;-68
2024/01/24 10:19:33;;;;;;;;;;;;;;;21.75;10.73;97442.94;6248783;28;19921;-67
2024/01/24 10:22:37;;;;;;;;;;;;;;;19.94;12.14;97444.50;6248672;28;19928;-67
2024/01/24 10:25:41;;;;;;;;;;;;;;;18.29;13.74;97439.78;6248702;28;19921;-67
2024/01/24 10:28:46;;;;;;;;;;;;;;;17.97;14.94;97433.72;6247912;28;19921;-67
2024/01/24 10:31:58;;;;;;;;;;;;;;;18.54;14.47;97427.84;6231166;28;19925;-68
2024/01/24 10:35:03;;;;;;;;;;;;;;;18.76;14.00;97432.09;6248167;28;20437;-67
2024/01/24 10:38:13;;;;;;;;;;;;;;;19.04;13.51;97430.47;6248224;28;19925;-67
2024/01/24 10:41:17;;;;;;;;;;;;;;;19.02;14.13;97431.59;6246906;28;19921;-68
2024/01/24 10:44:24;;;;;;;;;;;;;;;17.91;14.24;97427.13;6230317;28;19927;-67
2024/01/24 10:47:34;;;;;;;;;;;;;;;14.73;15.16;97415.06;6248049;28;20393;-68
2024/01/24 10:50:39;;;;;;;;;;;;;;;11.43;16.88;97418.28;6230331;28;19948;-68
2024/01/24 10:53:43;;;;;;;;;;;;;;;8.28;18.10;97407.00;6229474;28;20015;-68
2024/01/24 10:56:53;;;;;;;;;;;;;;;5.72;21.22;97404.63;6247637;28;19925;-68
2024/01/24 10:59:56;;;;;;;;;;;;;;;3.92;22.29;97402.81;6247208;28;19928;-67
2024/01/24 11:02:57;;;;;;;;;;;;;;;2.80;24.12;97398.13;6247364;28;20063;-67
2024/01/24 11:06:03;;;;;;;;;;;;;;;1.89;24.62;97399.41;6247244;28;19921;-67
2024/01/24 11:09:07;;;;;;;;;;;;;;;1.05;25.16;97403.72;6247575;28;19928;-68
2024/01/24 11:12:11;;;;;;;;;;;;;;;0.34;24.80;97398.88;6247865;28;19921;-68
2024/01/24 11:15:15;;;;;;;;;;;;;;;-0.13;25.04;97396.13;6247667;28;19921;-68
2024/01/24 11:18:27;;;;;;;;;;;;;;;-0.42;25.15;97401.72;6246703;28;20018;-67
2024/01/24 11:21:31;;;;;;;;;;;;;;;-0.65;25.39;97398.53;6247473;28;19920;-68
2024/01/24 11:24:44;;;;;;;;;;;;;;;-0.82;24.65;97406.50;6247152;28;19987;-67
2024/01/24 11:27:55;;;;;;;;;;;;;;;-1.04;25.28;97401.56;6247298;28;20394;-68
2024/01/24 11:30:59;;;;;;;;;;;;;;;-1.33;25.00;97406.16;6247288;28;20403;-68
2024/01/24 11:34:11;;;;;;;;;;;;;;;-1.67;24.63;97399.59;6245602;28;19940;-69
2024/01/24 11:37:15;;;;;;;;;;;;;;;-2.10;25.00;97396.44;6246515;28;19928;-69
2024/01/24 11:40:21;;;;;;;;;;;;;;;-2.63;25.54;97393.31;6246673;28;19928;-67
2024/01/24 11:43:22;;;;;;;;;;;;;;;-3.11;25.96;97400.34;6246948;28;19921;-69
2024/01/24 11:46:23;;;;;;;;;;;;;;;-3.50;26.25;97394.41;6246011;28;19928;-69
2024/01/24 11:49:26;;;;;;;;;;;;;;;-3.79;26.26;97397.00;6245812;28;20020;-69
2024/01/24 11:52:27;;;;;;;;;;;;;;;-4.06;26.60;97392.69;6228947;28;19932;-68
2024/01/24 11:55:31;;;;;;;;;;;;;;;-4.34;26.42;97394.34;6246327;28;19920;-68
2024/01/24 11:58:40;;;;;;;;;;;;;;;-4.65;26.98;97393.41;6246446;28;19921;-67
2024/01/24 12:01:41;;;;;;;;;;;;;;;-5.00;27.28;97381.31;6246161;28;19920;-68
2024/01/24 12:04:45;;;;;;;;;;;;;;;-5.34;27.25;97380.28;6246492;28;20306;-68
2024/01/24 12:07:49;;;;;;;;;;;;;;;-5.68;27.59;97374.94;6246146;28;20390;-68
2024/01/24 12:10:52;;;;;;;;;;;;;;;-6.04;27.33;97371.25;6228743;28;19920;-69
2024/01/24 12:13:56;;;;;;;;;;;;;;;-6.42;28.24;97374.34;6246042;28;19917;-68
2024/01/24 12:17:01;;;;;;;;;;;;;;;-6.84;27.90;97370.50;6245985;28;19921;-66
2024/01/24 12:20:03;;;;;;;;;;;;;;;-7.20;28.69;97381.13;6270075;28;19921;-68
2024/01/24 12:23:07;;;;;;;;;;;;;;;-7.53;28.66;97366.19;6270518;28;19975;-68
2024/01/24 12:26:10;;;;;;;;;;;;;;;-7.83;29.37;97377.69;6270538;28;19921;-68
2024/01/24 12:29:14;;;;;;;;;;;;;;;-8.11;29.49;97371.28;6270448;28;19921;-68
2024/01/24 12:32:21;;;;;;;;;;;;;;;-8.36;28.95;97375.13;6270472;28;19920;-68
2024/01/24 12:35:24;;;;;;;;;;;;;;;-8.62;29.79;97378.13;6269435;28;20055;-68
2024/01/24 12:38:26;;;;;;;;;;;;;;;-8.88;29.80;97369.13;6269421;28;19920;-68
2024/01/24 12:41:30;;;;;;;;;;;;;;;-9.12;29.95;97370.34;6270404;28;20385;-67
2024/01/24 12:44:32;;;;;;;;;;;;;;;-9.32;29.99;97371.66;6269217;28;20412;-68
2024/01/24 12:47:34;;;;;;;;;;;;;;;-9.53;30.28;97367.81;6269395;28;20032;-69
2024/01/24 12:50:35;;;;;;;;;;;;;;;-9.77;30.27;97372.38;6270026;28;20011;-69
2024/01/24 12:53:39;;;;;;;;;;;;;;;-10.02;30.85;97361.66;6269914;28;20027;-69
2024/01/24 12:56:40;;;;;;;;;;;;;;;-10.17;30.86;97361.28;6251683;28;19935;-68
2024/01/24 12:59:45;;;;;;;;;;;;;;;-10.29;31.00;97355.94;6270217;28;19931;-66
2024/01/24 13:02:46;;;;;;;;;;;;;;;-10.41;31.38;97353.94;6269656;28;19921;-68
2024/01/24 13:05:47;;;;;;;;;;;;;;;-10.46;31.88;97351.28;6269600;28;19920;-69
2024/01/24 13:08:51;;;;;;;;;;;;;;;-10.52;31.20;97351.13;6268771;28;19921;-68
2024/01/24 13:11:55;;;;;;;;;;;;;;;-10.59;31.40;97351.78;6269668;28;19920;-68
2024/01/24 13:15:04;;;;;;;;;;;;;;;-10.70;31.03;97343.91;6269806;28;19921;-70
2024/01/24 13:18:05;;;;;;;;;;;;;;;-10.87;31.19;97340.06;6259264;28;19921;-69
2024/01/24 13:21:06;;;;;;;;;;;;;;;-11.05;31.55;97350.59;6244446;28;19921;-68
2024/01/24 13:24:07;;;;;;;;;;;;;;;-11.20;31.49;97345.13;6244581;28;20498;-67
2024/01/24 13:27:13;;;;;;;;;;;;;;;-11.35;31.51;97353.16;6244264;28;19921;-68
2024/01/24 13:30:17;;;;;;;;;;;;;;;-11.50;31.53;97355.28;6244278;28;19921;-69
2024/01/24 13:33:18;;;;;;;;;;;;;;;-11.67;32.00;97352.25;6243481;28;19921;-69
2024/01/24 13:36:19;;;;;;;;;;;;;;;-11.80;31.93;97356.97;6244013;28;19936;-68
2024/01/24 13:39:22;;;;;;;;;;;;;;;-11.90;32.23;97347.38;6244428;28;19920;-69
2024/01/24 13:42:23;;;;;;;;;;;;;;;-11.99;32.15;97350.50;6244274;28;19917;-69
2024/01/24 13:45:24;;;;;;;;;;;;;;;-12.06;32.00;97347.72;6244045;28;19928;-68
2024/01/24 13:48:28;;;;;;;;;;;;;;;-12.12;32.40;97338.25;6244145;28;19916;-69
2024/01/24 13:51:29;;;;;;;;;;;;;;;-12.17;32.77;97338.91;6244058;28;20062;-68
2024/01/24 13:54:31;;;;;;;;;;;;;;;-12.24;32.55;97332.81;6244153;28;20299;-69
2024/01/24 13:57:33;;;;;;;;;;;;;;;-12.33;32.67;97323.22;6243284;28;20008;-67
2024/01/24 14:00:37;;;;;;;;;;;;;;;-12.39;32.89;97315.44;6244232;28;19924;-68
2024/01/24 14:03:42;;;;;;;;;;;;;;;-12.47;32.99;97316.88;6244192;28;19921;-69
2024/01/24 14:06:44;;;;;;;;;;;;;;;-12.54;32.91;97308.22;6243763;28;19928;-67
2024/01/24 14:09:45;;;;;;;;;;;;;;;-12.60;32.84;97319.81;6243169;28;19928;-68
2024/01/24 14:12:46;;;;;;;;;;;;;;;-12.69;33.29;97303.50;6243671;28;19944;-68
2024/01/24 14:15:49;;;;;;;;;;;;;;;-12.74;33.30;97315.16;6243829;28;19921;-68
2024/01/24 14:18:50;;;;;;;;;;;;;;;-12.80;33.52;97309.88;6243734;28;20059;-68
2024/01/24 14:21:54;;;;;;;;;;;;;;;-12.86;32.97;97304.63;6243997;28;19924;-69
2024/01/24 14:24:59;;;;;;;;;;;;;;;-12.91;33.43;97308.66;6243893;28;19925;-67
2024/01/24 14:28:01;;;;;;;;;;;;;;;-12.96;33.30;97302.63;6243002;28;20405;-67
2024/01/24 14:31:05;;;;;;;;;;;;;;;-13.03;33.00;97301.53;6243730;28;19921;-67
2024/01/24 14:34:06;;;;;;;;;;;;;;;-13.10;33.33;97299.63;6243067;28;20031;-68
2024/01/24 14:37:10;;;;;;;;;;;;;;;-13.21;34.08;97286.59;6243465;28;19921;-69
2024/01/24 14:40:14;;;;;;;;;;;;;;;-13.27;34.05;97285.53;6245715;28;19920;-68
2024/01/24 14:43:18;;;;;;;;;;;;;;;-13.37;34.03;97279.31;6248049;28;19921;-69
2024/01/24 14:46:21;;;;;;;;;;;;;;;-13.44;34.74;97279.91;6248154;28;19921;-69
2024/01/24 14:49:24;;;;;;;;;;;;;;;-13.51;34.11;97275.44;6248176;28;19921;-67
2024/01/24 14:52:26;;;;;;;;;;;;;;;-13.60;34.52;97271.78;6247763;28;20410;-67
2024/01/24 14:55:28;;;;;;;;;;;;;;;-13.66;34.08;97270.72;6247347;28;20802;-68
2024/01/24 14:58:29;;;;;;;;;;;;;;;-13.73;34.53;97269.59;6247748;28;19943;-67
2024/01/24 15:01:32;;;;;;;;;;;;;;;-13.75;35.28;97266.19;6247049;28;19921;-67
2024/01/24 15:04:39;;;;;;;;;;;;;;;-13.74;34.93;97265.38;6248180;28;19924;-69
2024/01/24 15:07:40;;;;;;;;;;;;;;;-13.71;34.49;97262.09;6247499;28;19921;-69
2024/01/24 15:10:41;;;;;;;;;;;;;;;-13.68;34.63;97257.97;6228497;28;20310;-68
2024/01/24 15:13:42;;;;;;;;;;;;;;;-13.63;34.04;97251.41;6246533;28;19920;-68
2024/01/24 15:16:44;;;;;;;;;;;;;;;-13.59;34.27;97248.19;6247285;28;19928;-69
2024/01/24 15:19:48;;;;;;;;;;;;;;;-13.55;34.24;97254.22;6229892;28;20019;-69
2024/01/24 15:22:54;;;;;;;;;;;;;;;-13.55;34.04;97238.19;6246477;28;19928;-68
2024/01/24 15:25:55;;;;;;;;;;;;;;;-13.59;34.76;97239.72;6246487;28;19921;-68
2024/01/24 15:28:58;;;;;;;;;;;;;;;-13.66;34.61;97238.66;6246971;28;19921;-68
2024/01/24 15:32:01;;;;;;;;;;;;;;;-13.74;35.74;97231.63;6229998;28;19921;-67
2024/01/24 15:35:03;;;;;;;;;;;;;;;-13.83;34.95;97235.53;6246799;28;20464;-68
2024/01/24 15:38:04;;;;;;;;;;;;;;;-13.95;35.14;97231.69;6246664;28;19940;-68
2024/01/24 15:41:05;;;;;;;;;;;;;;;-14.07;35.36;97237.19;6247119;28;19927;-68
2024/01/24 15:44:08;;;;;;;;;;;;;;;-14.18;36.07;97229.22;6246720;28;19917;-68